Detalii statie TOMOIOAGA GABRIEL [00001D05]

Toti senzorii

Date Temperatura solului [C]Precipitatii [mm]Voltaj baterie [mV]Leaf Wetness [Min]HC Air temperature [C]HC Relative humidity [%]Punctul de roua [C]
medieminmaxsumaultimatimpmedieminmaxmediemediemin
2018-02-23 13:00:00 0 7118 8.62 7.75 10.33 0 0 0
2018-02-23 14:00:00 0 7420 8.9 8.5 9.56 0 0 0
2018-02-23 15:00:00 0 7118 7.75 7.47 8.17 0 0 0
2018-02-23 16:00:00 0 7108 7.63 7.31 7.82 0 0 0
2018-02-23 17:00:00 0 7118 7 6.5 7.43 0 0 0
2018-02-23 18:00:00 0 6982 6.25 6.01 6.41 0 0 0
2018-02-23 19:00:00 0 6952 5.72 5.5 5.98 0 0 0
2018-02-23 20:00:00 0 6932 5.26 5.02 5.49 0 0 0
2018-02-23 21:00:00 0 6922 4.54 4.27 5.03 0 0 0
2018-02-23 22:00:00 0 6914 3.9 3.67 4.24 0 0 0
2018-02-23 23:00:00 0 6914 3.5 3.3 3.68 0 0 0
2018-02-24 00:00:00 0 6914 2.95 2.32 3.33 0 0 0
2018-02-24 01:00:00 0 6904 1.66 1.21 2.14 0 0 0
2018-02-24 02:00:00 0 6854 -32.71 1.05 0 0 0
2018-02-24 03:00:00 0 6894 -16.3 0.58 0 0 0
2018-02-24 04:00:00 0 6884 -25.16 0.19 0 0 0
2018-02-24 05:00:00 0 6884 -0.59 -0.85 -0.42 0 0 0
2018-02-24 06:00:00 0 6884 -1 -1.18 -0.91 0 0 0
2018-02-24 07:00:00 0 6874 -1.39 -1.62 -1.23 0 0 0
2018-02-24 08:00:00 0 6874 -1.81 -1.92 -1.6 0 0 0
2018-02-24 09:00:00 0 6894 -1.93 -2.08 -1.83 0 0 0
2018-02-24 10:00:00 0 7020 -2.01 -2.12 -1.92 0 0 0
2018-02-24 11:00:00 0 7304 -1.9 -2.11 -1.63 0 0 0
2018-02-24 12:00:00 0 7412 -1.49 -1.81 -1.13 0 0 0
2018-02-24 13:00:00 0 7372 -0.57 -1.05 -0.3 0 0 0
2018-02-24 14:00:00 0 7430 0.73 -0.47 1.44 0 0 0
2018-02-24 15:00:00 0 7440 1.13 0.78 1.52 0 0 0
2018-02-24 16:00:00 0 7440 0.98 0.56 1.48 0 0 0
2018-02-24 17:00:00 0 7324 0.72 0.48 0.93 0 0 0
2018-02-24 18:00:00 0 7060 -0.03 -0.63 0.44 0 0 0
2018-02-24 19:00:00 0 6972 -1.07 -1.41 -0.68 0 0 0
2018-02-24 20:00:00 0 6932 -1.58 -1.94 -1.39 0 0 0
2018-02-24 21:00:00 0 6922 -2.27 -2.5 -1.96 0 0 0
2018-02-24 22:00:00 0 6914 -2.94 -3.22 -2.55 0 0 0
2018-02-24 23:00:00 0 6894 -3.59 -3.82 -3.32 0 0 0
2018-02-25 00:00:00 0 6894 -4 -4.24 -3.78 0 0 0
2018-02-25 01:00:00 0 6874 -12.25 -3.93 0 0 0
2018-02-25 02:00:00 0 6884 -3.96 -4.13 -3.89 0 0 0
2018-02-25 03:00:00 0 6884 -4.4 -4.64 -4.14 0 0 0
2018-02-25 04:00:00 0 6864 -4.94 -5.18 -4.71 0 0 0
2018-02-25 05:00:00 0 6874 -5.73 -6.14 -5.36 0 0 0
2018-02-25 06:00:00 0 6864 -6.74 -7.19 -6.22 0 0 0
2018-02-25 07:00:00 0 6854 -7.54 -7.76 -7.25 0 0 0
2018-02-25 08:00:00 0 6864 -7.82 -7.92 -7.62 0 0 0
2018-02-25 09:00:00 0 6992 -7.41 -7.62 -7.12 0 0 0
2018-02-25 10:00:00 0 7158 -6.57 -7.05 -5.98 0 0 0
2018-02-25 11:00:00 0 7382 -5.01 -5.83 -4.46 0 0 0
2018-02-25 12:00:00 0 7420 -4.26 -4.7 -3.97 0 0 0